Gullane, United Kingdom
Current Conditions -  °F | °C
As of 2:50 AM on Wednesday 26 Nov 2014 (Local Time) from EGPH Reporting Station
Light Fog Light Fog  
Wind Chill:   Ceiling: Unl
Heat Index:   Visibility: 0.62mi
Dew Point:   Wind: 2mph
Humidity: 100%   Direction: 230°SW
Pressure: 30.06"   Gusts: NA
Location:  56.04°N, 2.83°W
Report Text: EGPH 260250Z 23002KT 1000 R24/0650 BCFG NSC 01/01 Q1018
Loading
Personal Weather Stations






























Interactive Weather Map New forecast layout! Learn more

10-Day Weather Forecast

Advertisements
Track Severe Weather on mobile